Time;durP1;ratioP1;P1;durP2;ratioP2;P2;SDS_P1;SDS_P2;PMS_P1;PMS_P2;Temp;Humidity;BMP_temperature;BMP_pressure;BME280_temperature;BME280_humidity;BME280_pressure;Samples;Min_cycle;Max_cycle;Signal;HPM_P1;HPM_P2
2022/05/15 00:02:06;;;;;;;5.28;3.28;;;12.80;99.90;;;12.49;82.16;97494.16;5034402;28;20178;-48
2022/05/15 00:04:31;;;;;;;7.70;3.10;;;12.80;99.90;;;12.43;83.69;97487.34;5036974;28;20477;-49
2022/05/15 00:06:57;;;;;;;5.65;3.35;;;12.70;99.90;;;12.37;83.87;97482.34;5033978;28;20044;-51
2022/05/15 00:09:23;;;;;;;3.53;2.45;;;12.60;99.90;;;12.34;83.27;97485.94;5014592;28;20039;-49
2022/05/15 00:11:49;;;;;;;5.95;3.17;;;12.60;99.90;;;12.31;83.02;97480.81;5035487;28;20625;-50
2022/05/15 00:14:15;;;;;;;7.65;3.22;;;12.60;99.90;;;12.27;84.03;97487.13;5034380;28;20037;-46
2022/05/15 00:16:41;;;;;;;4.07;2.72;;;12.50;99.90;;;12.20;84.97;97480.38;5037174;28;20086;-47
2022/05/15 00:19:07;;;;;;;3.63;2.78;;;12.50;99.90;;;12.16;86.81;97473.53;5032650;28;20167;-45
2022/05/15 00:21:33;;;;;;;7.30;2.92;;;12.40;99.90;;;12.10;88.38;97476.44;5035378;28;20040;-45
2022/05/15 00:23:59;;;;;;;4.18;2.90;;;12.40;99.90;;;12.03;89.25;97474.03;5032061;28;20041;-46
2022/05/15 00:26:25;;;;;;;6.65;2.72;;;12.40;99.90;;;11.97;89.92;97476.06;5037675;28;20516;-48
2022/05/15 00:28:51;;;;;;;8.13;2.65;;;12.30;99.90;;;11.91;90.46;97471.88;5033706;28;20045;-46
2022/05/15 00:31:18;;;;;;;5.95;3.08;;;12.20;99.90;;;11.84;90.02;97480.97;5032627;28;20125;-46
2022/05/15 00:33:44;;;;;;;5.00;3.00;;;12.10;99.90;;;11.82;89.44;97475.72;5035336;28;20033;-46
2022/05/15 00:36:11;;;;;;;7.60;3.47;;;12.10;99.90;;;11.78;90.37;97479.44;5035538;28;20028;-46
2022/05/15 00:38:37;;;;;;;5.63;3.22;;;12.10;99.90;;;11.74;90.41;97475.19;5017674;28;20025;-46
2022/05/15 00:41:04;;;;;;;5.43;3.30;;;12.00;99.90;;;11.69;91.34;97476.31;5036538;28;20036;-46
2022/05/15 00:43:48;;;;;;;6.30;3.30;;;12.00;99.90;;;11.63;91.66;97470.34;5035138;28;20037;-51
2022/05/15 00:46:30;;;;;;;5.97;3.33;;;12.00;99.90;;;11.60;91.71;97472.25;5036500;28;20481;-46
2022/05/15 00:49:00;;;;;;;4.97;3.35;;;11.90;99.90;;;11.56;91.70;97460.94;5032424;28;20036;-49
2022/05/15 00:51:46;;;;;;;6.15;3.70;;;11.90;99.90;;;11.54;91.61;97468.06;5039990;28;20021;-47
2022/05/15 00:54:23;;;;;;;4.95;3.10;;;11.90;99.90;;;11.53;91.89;97463.69;5037666;28;20079;-51
2022/05/15 00:57:02;;;;;;;4.70;3.00;;;11.90;99.90;;;11.51;91.59;97465.56;5034077;28;22352;-47
2022/05/15 00:59:36;;;;;;;4.03;3.08;;;11.80;99.90;;;11.51;91.10;97459.41;5037689;28;20036;-46
2022/05/15 01:02:02;;;;;;;5.35;3.53;;;11.80;99.90;;;11.48;91.25;97460.38;5036433;28;20037;-46
2022/05/15 01:04:28;;;;;;;6.13;3.55;;;11.80;99.90;;;11.50;90.60;97466.47;5033687;28;20040;-50
2022/05/15 01:09:23;;;;;;;8.20;3.72;;;11.80;99.90;;;11.46;92.25;97452.50;5040947;23;20080;-47
2022/05/15 01:11:49;;;;;;;5.25;3.45;;;11.80;99.90;;;11.43;93.27;97450.03;5037310;28;20065;-50
2022/05/15 01:14:18;;;;;;;7.10;3.90;;;11.70;99.90;;;11.41;94.17;97453.63;5039330;28;20033;-47
2022/05/15 01:16:44;;;;;;;5.70;3.53;;;11.70;99.90;;;11.38;94.73;97457.25;5035712;28;20029;-47
2022/05/15 01:19:11;;;;;;;6.15;3.35;;;11.70;99.90;;;11.33;95.72;97456.56;5039339;28;20033;-47
2022/05/15 01:21:51;;;;;;;6.38;3.58;;;11.70;99.90;;;11.36;96.62;97460.84;5040407;28;20025;-46
2022/05/15 01:24:17;;;;;;;7.38;3.60;;;11.70;99.90;;;11.33;97.39;97453.94;5022487;28;20071;-47
2022/05/15 01:26:44;;;;;;;6.00;3.75;;;11.70;99.90;;;11.29;98.32;97447.06;5040152;28;20078;-47
2022/05/15 01:29:10;;;;;;;8.50;3.75;;;11.70;99.90;;;11.30;98.75;97456.69;5040426;28;20025;-47
2022/05/15 01:31:37;;;;;;;8.77;3.65;;;11.60;99.90;;;11.28;99.31;97448.81;5039368;28;20037;-49
2022/05/15 01:34:06;;;;;;;6.07;3.67;;;11.60;99.90;;;11.25;99.28;97454.25;5039280;28;20064;-47
2022/05/15 01:36:32;;;;;;;5.78;3.92;;;11.60;99.90;;;11.22;99.47;97451.72;5021146;28;20715;-47
2022/05/15 01:38:58;;;;;;;6.68;4.00;;;11.60;99.90;;;11.20;99.65;97444.78;5039101;28;20036;-46
2022/05/15 01:41:25;;;;;;;4.88;3.42;;;11.50;99.90;;;11.17;99.83;97443.09;5042397;28;20036;-48
2022/05/15 01:43:54;;;;;;;5.75;3.70;;;11.50;99.90;;;11.15;100.00;97442.31;5039338;28;20040;-47
2022/05/15 01:46:25;;;;;;;5.43;3.30;;;11.50;99.90;;;11.12;100.00;97452.97;5038665;28;20041;-48
2022/05/15 01:48:52;;;;;;;7.05;3.70;;;11.50;99.90;;;11.10;100.00;97452.19;5036733;28;20030;-47
2022/05/15 01:51:19;;;;;;;6.03;3.60;;;11.40;99.90;;;11.07;100.00;97449.66;5037164;28;20025;-46
2022/05/15 01:53:44;;;;;;;7.35;3.70;;;11.40;99.90;;;11.05;100.00;97446.22;5040640;28;20044;-46
2022/05/15 01:56:11;;;;;;;5.57;3.50;;;11.40;99.90;;;11.02;100.00;97456.91;5037441;28;20472;-46
2022/05/15 01:58:37;;;;;;;6.15;3.30;;;11.40;99.90;;;11.00;100.00;97450.78;5034178;28;20424;-46
2022/05/15 02:01:04;;;;;;;5.20;3.40;;;11.30;99.90;;;10.99;100.00;97446.47;5040452;28;20086;-47
2022/05/15 02:03:29;;;;;;;7.35;3.85;;;11.30;99.90;;;10.88;100.00;97431.88;5041324;28;20460;-46
2022/05/15 02:05:55;;;;;;;4.97;3.05;;;11.30;99.90;;;10.96;100.00;97451.84;5037953;28;20120;-51
2022/05/15 02:08:21;;;;;;;5.13;3.63;;;11.30;99.90;;;10.80;100.00;97428.69;5035264;28;20028;-48
2022/05/15 02:10:47;;;;;;;8.52;3.35;;;11.20;99.90;;;10.85;100.00;97436.41;5039636;28;20029;-47
2022/05/15 02:13:14;;;;;;;5.85;3.20;;;11.20;99.90;;;10.88;100.00;97439.78;5036440;28;20029;-47
2022/05/15 02:15:39;;;;;;;4.13;2.80;;;11.20;99.90;;;10.85;99.89;97444.31;5037872;28;20036;-47
2022/05/15 02:18:06;;;;;;;5.28;2.60;;;11.20;99.90;;;10.82;99.66;97442.69;5037483;28;20036;-46
2022/05/15 02:20:32;;;;;;;9.93;2.45;;;11.20;99.90;;;10.76;99.42;97436.75;5039770;28;20114;-46
2022/05/15 02:22:58;;;;;;;4.70;2.83;;;11.20;99.90;;;10.77;99.34;97441.97;5039575;28;20063;-46
2022/05/15 02:25:24;;;;;;;5.38;2.50;;;11.10;99.90;;;10.70;99.56;97435.22;5038280;28;20139;-47
2022/05/15 02:27:50;;;;;;;3.88;2.40;;;11.10;99.90;;;10.71;99.10;97436.91;5037019;28;20048;-48
2022/05/15 02:30:17;;;;;;;4.50;2.63;;;11.00;99.90;;;10.68;98.66;97440.53;5035941;28;20712;-47
2022/05/15 02:32:43;;;;;;;4.97;2.72;;;11.00;99.90;;;10.69;98.34;97444.03;5039941;28;20033;-46
2022/05/15 02:35:10;;;;;;;4.97;2.70;;;11.00;99.90;;;10.69;98.52;97439.63;5041047;28;20068;-50
2022/05/15 02:37:37;;;;;;;5.18;3.08;;;11.00;99.90;;;10.67;99.78;97438.81;5035761;28;20072;-49
2022/05/15 02:40:05;;;;;;;6.35;2.95;;;11.00;99.90;;;10.66;100.00;97442.38;5031576;28;20037;-49
2022/05/15 02:42:31;;;;;;;6.55;2.95;;;11.00;99.90;;;10.62;100.00;97440.78;5033092;28;20038;-49
2022/05/15 02:44:57;;;;;;;5.05;2.85;;;11.00;99.90;;;10.61;99.57;97446.09;5039089;28;20116;-48
2022/05/15 02:47:24;;;;;;;3.60;2.30;;;10.90;99.90;;;10.60;99.47;97439.09;5038963;28;20035;-51
2022/05/15 02:52:35;;;;;;;3.15;2.40;;;10.90;99.90;;;10.53;99.42;97434.97;5040774;28;20037;-49
2022/05/15 02:55:02;;;;;;;3.10;2.28;;;10.90;99.90;;;10.52;98.82;97439.38;5038962;28;20040;-49
2022/05/15 02:57:28;;;;;;;4.53;2.50;;;10.90;99.90;;;10.51;98.51;97435.00;5038293;28;20065;-48
2022/05/15 02:59:54;;;;;;;3.72;2.60;;;10.80;99.90;;;10.49;98.86;97432.44;5020572;28;20163;-47
2022/05/15 03:02:19;;;;;;;5.07;3.20;;;10.80;99.90;;;10.50;99.62;97430.69;5039390;28;20120;-46
2022/05/15 03:04:47;;;;;;;4.82;3.15;;;10.80;99.90;;;10.47;100.00;97436.91;5039727;28;20118;-47
2022/05/15 03:07:13;;;;;;;5.13;2.67;;;10.80;99.90;;;10.46;100.00;97436.94;5041988;28;20041;-46
2022/05/15 03:09:39;;;;;;;5.32;3.40;;;10.80;99.90;;;10.43;100.00;97431.81;5039107;28;20025;-48
2022/05/15 03:12:05;;;;;;;4.90;3.30;;;10.80;99.90;;;10.41;100.00;97433.63;5041662;28;20027;-49
2022/05/15 03:14:31;;;;;;;6.95;3.60;;;10.80;99.90;;;10.39;100.00;97428.41;5038749;28;20558;-50
2022/05/15 03:16:57;;;;;;;6.75;3.38;;;10.70;99.90;;;10.39;100.00;97438.09;5044640;28;20037;-46
2022/05/15 03:19:23;;;;;;;4.32;3.20;;;10.70;99.90;;;10.36;100.00;97428.53;5040433;28;20236;-47
2022/05/15 03:21:48;;;;;;;5.32;3.08;;;10.70;99.90;;;10.32;100.00;97433.03;5043977;28;21312;-50
2022/05/15 03:24:14;;;;;;;5.03;3.35;;;10.70;99.90;;;10.31;100.00;97433.09;5043372;28;20028;-46
2022/05/15 03:26:44;;;;;;;4.53;3.40;;;10.60;99.90;;;10.30;100.00;97439.22;5038889;28;20094;-47
2022/05/15 03:29:13;;;;;;;8.35;3.10;;;10.60;99.90;;;10.27;100.00;97440.22;5039281;28;20043;-48
2022/05/15 03:31:39;;;;;;;5.38;3.80;;;10.60;99.90;;;10.22;100.00;97436.03;5034724;28;20025;-47
2022/05/15 03:34:08;;;;;;;6.55;3.45;;;10.60;99.90;;;10.22;100.00;97434.25;5043703;28;20044;-46
2022/05/15 03:36:36;;;;;;;4.50;3.00;;;10.60;99.90;;;10.19;100.00;97442.25;5042418;28;20531;-49
2022/05/15 03:39:03;;;;;;;6.35;3.50;;;10.50;99.90;;;10.15;100.00;97432.72;5045528;28;20056;-46
2022/05/15 03:41:29;;;;;;;5.68;3.15;;;10.50;99.90;;;10.17;100.00;97438.81;5040562;28;20935;-46
2022/05/15 03:43:55;;;;;;;6.57;3.35;;;10.50;99.90;;;10.17;100.00;97440.59;5040693;28;20662;-46
2022/05/15 03:46:20;;;;;;;7.30;2.88;;;10.50;99.90;;;10.15;100.00;97439.78;5043875;28;20116;-47
2022/05/15 03:48:46;;;;;;;6.25;3.33;;;10.50;99.90;;;10.16;100.00;97447.66;5043350;28;20032;-46
2022/05/15 03:51:12;;;;;;;6.38;3.25;;;10.50;99.90;;;10.18;100.00;97452.88;5042854;28;20033;-50
2022/05/15 03:53:38;;;;;;;6.35;3.70;;;10.50;99.90;;;10.20;100.00;97445.75;5037116;28;20028;-47
2022/05/15 03:56:05;;;;;;;4.68;3.40;;;10.50;99.90;;;10.22;100.00;97454.47;5041823;28;20025;-46
2022/05/15 03:58:35;;;;;;;6.50;3.15;;;10.50;99.90;;;10.21;100.00;97458.88;5040047;28;20037;-49
2022/05/15 04:01:01;;;;;;;7.85;3.65;;;10.60;99.90;;;10.22;100.00;97446.56;5039017;28;20028;-47
2022/05/15 04:03:27;;;;;;;6.07;3.30;;;10.60;99.90;;;10.19;100.00;97454.56;5043862;28;20177;-46
2022/05/15 04:05:53;;;;;;;5.13;2.67;;;10.60;99.90;;;10.23;100.00;97456.19;5041507;28;20032;-47
2022/05/15 04:08:19;;;;;;;6.03;3.00;;;10.60;99.90;;;10.24;100.00;97453.50;5042194;28;20059;-49
2022/05/15 04:10:45;;;;;;;5.68;2.90;;;10.60;99.90;;;10.25;100.00;97452.59;5040805;28;20525;-49
2022/05/15 04:13:10;;;;;;;8.60;3.10;;;10.60;99.90;;;10.28;100.00;97454.25;5036486;28;20446;-50
2022/05/15 04:15:36;;;;;;;5.10;3.10;;;10.60;99.90;;;10.30;100.00;97452.41;5041075;28;20025;-51
2022/05/15 04:18:02;;;;;;;6.75;2.92;;;10.60;99.90;;;10.33;100.00;97452.34;5042853;28;20059;-48
2022/05/15 04:20:29;;;;;;;5.00;3.00;;;10.70;99.90;;;10.36;100.00;97441.69;5042781;28;20121;-50
2022/05/15 04:22:55;;;;;;;5.45;3.50;;;10.70;99.90;;;10.40;100.00;97448.56;5038032;28;20111;-47
2022/05/15 04:25:21;;;;;;;5.63;3.38;;;10.70;99.90;;;10.42;100.00;97444.09;5039476;28;20029;-48
2022/05/15 04:27:48;;;;;;;5.78;3.10;;;10.80;99.90;;;10.49;100.00;97453.53;5040533;28;20188;-50
2022/05/15 04:30:20;;;;;;;5.18;2.95;;;10.80;99.90;;;10.53;100.00;97456.91;5037815;28;20028;-47
2022/05/15 04:32:46;;;;;;;4.10;3.10;;;10.90;99.90;;;10.59;100.00;97456.72;5039958;28;20020;-49
2022/05/15 04:35:12;;;;;;;4.55;2.95;;;10.90;99.90;;;10.64;100.00;97464.44;5041265;28;20037;-50
2022/05/15 04:37:39;;;;;;;4.72;3.05;;;11.00;99.90;;;10.72;100.00;97467.66;5042435;28;20045;-49
2022/05/15 04:40:07;;;;;;;7.25;3.25;;;11.00;99.90;;;10.79;100.00;97465.66;5042907;28;20043;-48
2022/05/15 04:42:33;;;;;;;5.60;3.50;;;11.10;99.90;;;10.85;100.00;97457.53;5037859;28;20040;-46
2022/05/15 04:44:59;;;;;;;4.68;3.30;;;11.20;99.90;;;10.94;100.00;97458.97;5042335;28;20135;-46
2022/05/15 04:47:24;;;;;;;5.93;3.22;;;11.30;99.90;;;11.01;100.00;97455.16;5042859;28;20496;-51
2022/05/15 04:49:51;;;;;;;4.05;2.92;;;11.30;99.90;;;11.09;100.00;97463.66;5043853;28;20071;-48
2022/05/15 04:52:17;;;;;;;5.03;3.40;;;11.40;99.90;;;11.19;100.00;97472.94;5039530;28;20024;-46
2022/05/15 04:54:43;;;;;;;7.28;3.40;;;11.50;99.90;;;11.26;100.00;97463.88;5037888;28;20601;-46
2022/05/15 04:57:09;;;;;;;6.20;3.42;;;11.60;99.90;;;11.30;100.00;97456.69;5039953;28;20032;-46
2022/05/15 04:59:35;;;;;;;8.20;3.67;;;11.70;99.90;;;11.42;100.00;97464.13;5042494;28;20431;-47
2022/05/15 05:02:01;;;;;;;5.18;3.15;;;11.70;99.90;;;11.50;100.00;97466.47;5042133;28;20243;-46
2022/05/15 05:04:26;;;;;;;5.35;3.50;;;11.90;99.90;;;11.58;100.00;97463.53;5041454;28;20230;-48
2022/05/15 05:06:52;;;;;;;6.03;3.13;;;11.90;99.90;;;11.67;100.00;97467.59;5039774;28;20123;-50
2022/05/15 05:09:18;;;;;;;5.75;3.30;;;12.00;99.90;;;11.75;100.00;97462.84;5040426;28;20016;-47
2022/05/15 05:11:44;;;;;;;5.78;3.20;;;12.10;99.90;;;11.85;100.00;97466.84;5039363;28;20028;-47
2022/05/15 05:14:10;;;;;;;6.32;2.95;;;12.20;99.90;;;11.96;100.00;97467.28;5037469;28;20519;-46
2022/05/15 05:16:35;;;;;;;5.35;3.00;;;12.30;99.90;;;12.09;100.00;97472.06;5041765;28;20033;-47
2022/05/15 05:19:03;;;;;;;7.93;3.28;;;12.40;99.90;;;12.22;100.00;97467.97;5040811;28;20041;-49
2022/05/15 05:21:29;;;;;;;4.85;3.17;;;12.60;99.90;;;12.35;100.00;97471.81;5039804;28;20435;-47
2022/05/15 05:23:55;;;;;;;5.00;2.67;;;12.70;99.90;;;12.48;99.72;97471.28;5039512;28;20079;-50
2022/05/15 05:26:21;;;;;;;4.60;2.90;;;12.80;99.90;;;12.68;98.58;97481.84;5037632;28;20045;-47
2022/05/15 05:28:47;;;;;;;5.10;3.17;;;13.00;99.90;;;12.95;96.19;97490.34;5037159;28;20032;-48
2022/05/15 05:31:13;;;;;;;10.77;3.00;;;13.20;99.90;;;13.22;94.64;97483.88;5035009;28;20037;-47
2022/05/15 05:33:40;;;;;;;5.15;2.70;;;13.50;99.90;;;13.54;93.13;97485.88;5032941;28;20311;-47
2022/05/15 05:36:06;;;;;;;7.57;2.55;;;13.70;99.90;;;14.21;90.31;97496.81;5033799;28;20021;-47
2022/05/15 05:38:34;;;;;;;3.38;2.13;;;14.00;99.90;;;15.16;83.69;97495.47;5030636;28;20032;-46
2022/05/15 05:41:00;;;;;;;5.60;2.92;;;14.60;99.90;;;15.70;76.10;97489.88;5037781;28;20063;-46
2022/05/15 05:43:25;;;;;;;4.40;2.60;;;15.10;99.90;;;16.07;74.37;97498.44;5035275;23;20053;-38
2022/05/15 05:45:51;;;;;;;3.10;2.38;;;15.40;99.90;;;16.28;72.54;97491.88;4997609;28;20395;-38
2022/05/15 05:48:17;;;;;;;4.30;2.50;;;15.70;99.90;;;16.39;71.04;97499.25;5001288;28;20064;-40
2022/05/15 05:50:42;;;;;;;3.95;2.28;;;15.90;99.90;;;16.45;68.68;97490.88;4990493;28;20593;-40
2022/05/15 05:53:09;;;;;;;5.15;2.30;;;16.00;99.90;;;16.52;68.25;97494.88;5002554;28;20285;-40
2022/05/15 05:55:35;;;;;;;6.65;2.47;;;16.20;99.90;;;16.42;67.24;97483.94;5002656;28;20516;-40
2022/05/15 05:58:02;;;;;;;4.68;2.85;;;16.20;99.90;;;16.31;64.12;97494.38;5000721;28;20042;-40
2022/05/15 06:00:32;;;;;;;5.20;2.42;;;16.20;99.90;;;16.21;65.93;97493.19;4995880;28;20030;-40
2022/05/15 06:04:39;;;;;;;3.85;2.55;;;16.20;99.90;;;16.17;66.91;97492.50;4992580;28;20038;-40
2022/05/15 06:05:46;;;;;;;5.82;2.17;;;16.20;99.90;;;16.14;67.98;97481.19;4992183;28;20575;-37
2022/05/15 06:08:12;;;;;;;2.83;2.30;;;16.20;99.90;;;16.23;69.04;97489.47;4997212;28;20411;-40
2022/05/15 06:10:38;;;;;;;6.15;2.70;;;16.30;99.90;;;16.15;66.34;97494.41;5001171;28;20492;-40
2022/05/15 06:13:04;;;;;;;4.65;2.30;;;16.30;99.90;;;16.15;68.32;97497.06;5001077;28;20037;-40
2022/05/15 06:15:30;;;;;;;3.83;2.25;;;16.30;99.90;;;16.20;68.80;97483.47;4995747;28;20149;-40
2022/05/15 06:18:00;;;;;;;4.25;2.20;;;16.30;99.90;;;16.25;67.19;97494.72;4996764;28;20505;-40
2022/05/15 06:20:27;;;;;;;3.55;2.33;;;16.40;99.90;;;16.29;66.55;97490.06;4996475;28;20057;-40
2022/05/15 06:22:53;;;;;;;4.25;2.10;;;16.50;99.90;;;16.36;66.73;97494.94;4993335;28;20053;-40
2022/05/15 06:25:19;;;;;;;3.72;1.80;;;16.50;99.90;;;16.40;65.92;97493.84;4996637;28;20050;-40
2022/05/15 06:27:44;;;;;;;2.88;1.80;;;16.60;99.90;;;16.44;65.97;97480.31;4977402;28;20041;-40
2022/05/15 06:30:12;;;;;;;2.80;1.90;;;16.60;99.90;;;16.51;65.24;97485.22;4998591;28;20026;-40
2022/05/15 06:32:40;;;;;;;6.20;2.20;;;16.70;99.90;;;16.61;64.46;97496.16;5000049;28;20065;-41
2022/05/15 06:35:08;;;;;;;2.05;1.83;;;16.80;99.90;;;16.69;64.88;97487.69;4998365;28;20025;-40
2022/05/15 06:37:34;;;;;;;3.97;2.00;;;16.90;99.90;;;16.83;64.83;97500.19;4994723;28;20044;-40
2022/05/15 06:39:59;;;;;;;3.20;1.92;;;17.00;99.90;;;16.93;64.43;97499.56;5000001;28;20026;-40
2022/05/15 06:42:28;;;;;;;4.63;2.00;;;17.10;99.90;;;17.03;64.33;97485.66;4998527;28;20052;-40
2022/05/15 06:44:54;;;;;;;2.85;1.67;;;17.20;99.90;;;17.21;63.50;97494.34;4995260;28;20072;-41
2022/05/15 06:47:20;;;;;;;2.92;2.00;;;17.30;99.90;;;17.32;64.59;97494.53;5005977;28;20049;-40
2022/05/15 06:49:46;;;;;;;3.47;1.80;;;17.40;99.90;;;17.41;63.40;97501.06;4997100;28;20164;-40
2022/05/15 06:52:12;;;;;;;3.63;1.83;;;17.50;99.90;;;17.51;62.76;97502.22;5001879;28;20022;-41
2022/05/15 06:54:38;;;;;;;5.18;2.22;;;17.60;99.90;;;17.56;64.21;97500.13;5000882;28;20621;-41
2022/05/15 06:59:48;;;;;;;5.53;2.33;;;17.70;99.90;;;17.62;65.49;97499.75;5001631;28;20448;-41
2022/05/15 07:02:14;;;;;;;2.85;2.03;;;17.80;99.90;;;17.58;64.74;97492.03;5003072;28;20041;-40
2022/05/15 07:04:40;;;;;;;6.97;2.25;;;17.70;99.90;;;17.62;63.81;97499.75;5001564;28;20042;-41
2022/05/15 07:07:06;;;;;;;3.47;2.20;;;17.70;99.90;;;17.66;63.38;97500.41;5004768;28;20088;-40
2022/05/15 07:09:32;;;;;;;2.65;1.48;;;17.80;99.90;;;17.71;62.80;97496.47;5002531;28;20319;-40
2022/05/15 07:11:58;;;;;;;3.38;1.73;;;17.80;99.90;;;17.78;62.00;97504.06;5001934;28;20078;-40
2022/05/15 07:14:24;;;;;;;4.25;2.30;;;17.90;99.90;;;17.85;59.79;97494.72;5003803;28;20049;-41
2022/05/15 07:16:50;;;;;;;2.20;1.67;;;18.00;99.90;;;17.97;59.76;97496.63;5002389;28;20069;-40
2022/05/15 07:19:15;;;;;;;3.60;1.95;;;18.10;99.90;;;18.11;59.06;97485.91;5001720;28;20041;-40
2022/05/15 07:21:41;;;;;;;3.38;1.83;;;18.20;99.90;;;18.34;59.23;97488.88;5000840;28;20504;-40
2022/05/15 07:24:08;;;;;;;4.97;2.20;;;18.40;99.90;;;18.50;57.30;97494.00;5000998;28;20425;-40
2022/05/15 07:26:34;;;;;;;3.88;1.92;;;18.70;99.90;;;18.54;54.55;97486.63;4994451;28;20176;-40
2022/05/15 07:28:59;;;;;;;8.18;1.83;;;18.80;99.40;;;18.65;53.22;97497.47;5003532;28;20037;-39
2022/05/15 07:31:25;;;;;;;2.85;1.30;;;18.90;98.60;;;18.78;52.71;97482.28;5002361;28;20311;-41
2022/05/15 07:33:51;;;;;;;2.38;1.50;;;19.00;98.40;;;18.94;52.37;97491.97;5002552;28;20590;-40
2022/05/15 07:36:17;;;;;;;2.60;1.38;;;19.10;97.90;;;19.00;53.39;97487.03;5006703;28;20026;-41
2022/05/15 07:38:43;;;;;;;2.78;1.60;;;19.10;98.00;;;19.04;52.38;97487.66;5002882;28;21495;-40
2022/05/15 07:41:09;;;;;;;5.38;1.55;;;19.20;97.90;;;19.05;50.28;97492.91;5003281;28;20486;-40
2022/05/15 07:43:35;;;;;;;2.35;1.40;;;19.20;96.90;;;19.16;51.50;97494.84;5003940;28;20421;-41
2022/05/15 07:46:01;;;;;;;2.67;1.23;;;19.30;97.10;;;19.21;51.22;97487.34;5005277;28;20049;-41
2022/05/15 07:48:26;;;;;;;2.83;1.48;;;19.30;96.70;;;19.26;50.55;97485.22;4994957;28;20036;-41
2022/05/15 07:50:55;;;;;;;3.92;1.60;;;19.40;96.40;;;19.34;51.65;97471.28;4990015;28;20261;-41
2022/05/15 07:53:21;;;;;;;3.33;1.25;;;19.50;96.70;;;19.45;50.68;97479.41;4993311;28;20183;-41
2022/05/15 07:55:46;;;;;;;2.42;1.77;;;19.60;96.40;;;19.61;51.54;97489.88;4990273;28;20109;-41
2022/05/15 07:58:12;;;;;;;3.47;1.60;;;19.70;96.30;;;19.68;51.33;97478.72;5005484;28;20382;-40
2022/05/15 08:00:38;;;;;;;2.35;1.40;;;19.80;96.10;;;19.81;51.82;97479.53;5006780;28;20187;-38
2022/05/15 08:03:10;;;;;;;1.70;1.35;;;19.90;96.50;;;19.92;51.22;97478.75;5003981;28;20053;-41
2022/05/15 08:08:23;;;;;;;2.97;1.45;;;20.00;95.40;;;19.94;51.08;97488.41;5004589;28;20052;-40
2022/05/15 08:10:50;;;;;;;4.03;1.50;;;20.00;95.80;;;19.98;50.44;97483.66;5007771;28;20268;-40
2022/05/15 08:13:23;;;;;;;4.72;1.63;;;20.10;95.40;;;20.03;49.95;97484.19;5002215;28;20022;-41
2022/05/15 08:15:49;;;;;;;5.05;1.80;;;20.10;95.20;;;20.10;49.69;97490.81;5010707;28;20029;-41
2022/05/15 08:23:57;;;;;;;3.22;1.60;;;20.40;94.30;;;20.43;49.64;97472.31;5004598;28;20075;-40
2022/05/15 08:26:24;;;;;;;3.20;1.50;;;20.60;94.30;;;20.58;49.63;97481.84;5003502;28;20113;-40
2022/05/15 08:28:51;;;;;;;3.88;1.80;;;20.70;94.50;;;20.62;49.56;97482.50;5009062;28;20026;-40
2022/05/15 08:31:17;;;;;;;2.80;1.60;;;20.70;94.10;;;20.67;48.11;97488.38;5002596;28;20037;-40
2022/05/15 08:33:44;;;;;;;3.05;1.60;;;20.80;93.30;;;20.75;48.99;97481.44;5006328;28;20090;-41
2022/05/15 08:36:10;;;;;;;2.35;1.45;;;20.90;93.50;;;20.79;46.89;97476.69;5007400;28;20025;-40
2022/05/15 08:38:37;;;;;;;3.42;1.52;;;20.90;92.40;;;20.80;48.35;97486.47;5001619;28;20040;-40
2022/05/15 08:41:40;;;;;;;5.45;1.70;;;21.00;93.40;;;20.83;47.36;97475.47;5005742;28;20021;-41
2022/05/15 08:44:18;;;;;;;3.10;1.90;;;21.00;92.00;;;20.87;47.22;97479.66;5001468;28;20026;-39
2022/05/15 08:47:14;;;;;;;2.13;1.40;;;21.00;91.90;;;20.92;48.35;97484.63;4995844;28;20034;-39
2022/05/15 08:50:08;;;;;;;3.67;1.73;;;21.00;92.30;;;20.99;45.57;97483.19;4997695;28;20053;-40
2022/05/15 08:52:53;;;;;;;3.13;1.35;;;21.10;91.00;;;21.04;46.50;97485.53;4996797;28;20042;-40
2022/05/15 08:55:24;;;;;;;2.72;1.70;;;21.10;91.50;;;21.08;45.38;97479.78;4998818;28;20037;-39
2022/05/15 08:57:58;;;;;;;5.45;2.10;;;21.20;91.00;;;21.08;46.62;97479.78;4985975;28;20034;-40
2022/05/15 09:00:33;;;;;;;3.92;1.60;;;21.20;91.00;;;21.17;45.10;97479.09;4985626;28;20042;-40
2022/05/15 09:03:27;;;;;;;2.83;1.50;;;21.20;90.70;;;21.19;46.84;97478.94;5002529;28;20120;-40
2022/05/15 09:05:58;;;;;;;3.60;1.42;;;21.30;90.90;;;21.33;46.95;97485.91;5002702;28;20709;-40
2022/05/15 09:09:16;;;;;;;2.90;1.30;;;21.40;91.40;;;21.48;47.13;97479.34;4978042;28;20037;-39
2022/05/15 09:12:06;;;;;;;3.65;1.48;;;21.50;91.00;;;21.59;47.29;97475.81;5002885;28;20029;-40
2022/05/15 09:15:01;;;;;;;1.90;1.38;;;21.60;90.40;;;21.69;45.30;97478.59;5003629;28;20049;-40
2022/05/15 09:17:41;;;;;;;8.15;1.90;;;21.80;90.90;;;21.73;45.72;97480.03;4997516;28;20099;-40
2022/05/15 09:20:19;;;;;;;2.88;1.52;;;21.80;90.10;;;21.83;45.86;97477.47;5003084;28;20429;-40
2022/05/15 09:22:54;;;;;;;3.70;1.30;;;21.90;90.10;;;21.92;47.67;97474.88;4999771;28;20026;-40
2022/05/15 09:25:25;;;;;;;3.55;1.52;;;22.00;91.50;;;21.95;43.45;97481.84;4984549;28;20037;-40
2022/05/15 09:28:16;;;;;;;6.95;1.48;;;22.10;86.30;;;21.92;43.93;97477.56;5000414;28;20065;-40
2022/05/15 09:30:49;;;;;;;2.38;1.48;;;22.10;86.00;;;21.97;44.68;97466.47;5000154;28;20065;-40
2022/05/15 09:33:33;;;;;;;5.78;2.00;;;22.10;87.10;;;22.07;45.35;97474.59;5005846;28;20038;-40
2022/05/15 09:36:49;;;;;;;2.03;1.65;;;22.20;88.70;;;22.18;42.76;97471.91;4985299;28;20029;-40
2022/05/15 09:40:02;;;;;;;6.68;1.77;;;22.30;85.90;;;22.29;44.52;97469.19;4998486;28;20038;-40
2022/05/15 09:45:16;;;;;;;4.15;1.40;;;22.50;84.10;;;22.40;43.53;97462.91;5000847;28;20111;-40
2022/05/15 09:47:51;;;;;;;4.97;1.70;;;22.50;84.50;;;22.47;43.42;97461.41;5000842;28;20038;-40
2022/05/15 09:50:55;;;;;;;3.53;1.63;;;22.60;83.80;;;22.45;40.15;97457.13;4997158;28;20018;-40
2022/05/15 09:53:40;;;;;;;3.35;1.60;;;22.60;79.50;;;22.56;42.45;97458.91;4999220;28;20477;-40
2022/05/15 09:56:26;;;;;;;5.75;1.52;;;22.70;80.80;;;22.65;43.34;97456.31;4980865;28;20033;-40
2022/05/15 09:58:55;;;;;;;3.22;1.67;;;22.80;82.90;;;22.77;42.67;97451.69;4995415;28;20025;-40
2022/05/15 10:01:26;;;;;;;1.95;1.50;;;22.90;81.80;;;22.83;41.66;97453.88;4999958;28;20026;-40
2022/05/15 10:03:57;;;;;;;3.83;1.90;;;23.00;80.90;;;22.87;40.78;97449.94;4994479;28;20445;-40
2022/05/15 10:06:29;;;;;;;2.10;1.30;;;23.00;80.20;;;22.88;42.07;97448.13;5001462;28;20393;-40
2022/05/15 10:09:31;;;;;;;5.15;1.52;;;23.00;79.90;;;22.88;42.27;97450.81;4989727;28;20068;-40
2022/05/15 10:12:16;;;;;;;3.47;1.55;;;23.00;80.40;;;22.93;43.85;97445.84;4989856;28;20057;-40
2022/05/15 10:14:48;;;;;;;2.60;1.55;;;23.00;81.50;;;23.05;41.28;97442.13;5001069;28;20025;-39
2022/05/15 10:17:14;;;;;;;;;;;23.10;79.60;;;23.10;41.89;97440.91;4981308;28;20049;-40
2022/05/15 10:20:21;;;;;;;3.78;1.88;;;23.20;80.20;;;23.17;41.17;97440.22;4996175;28;19929;-40
2022/05/15 10:23:11;;;;;;;3.92;1.55;;;23.30;78.80;;;23.19;43.12;97426.66;4993895;28;20156;-40
2022/05/15 10:25:49;;;;;;;3.15;1.67;;;23.30;78.30;;;23.28;41.97;97425.81;4996537;28;20030;-40
2022/05/15 10:28:52;;;;;;;3.70;1.58;;;23.30;81.50;;;23.34;42.03;97421.72;5000071;28;20568;-40
2022/05/15 10:31:26;;;;;;;3.80;1.42;;;23.40;80.60;;;23.34;41.36;97427.97;4968029;28;20437;-40
2022/05/15 10:33:57;;;;;;;2.33;1.60;;;23.40;77.90;;;23.37;41.94;97416.94;4971840;28;20493;-41
2022/05/15 10:37:09;;;;;;;3.42;1.60;;;23.50;79.60;;;23.44;42.53;97418.09;5003587;28;20040;-40
2022/05/15 10:40:05;;;;;;;6.50;2.25;;;23.60;79.90;;;23.45;40.73;97405.47;5001254;28;20525;-40
2022/05/15 10:42:55;;;;;;;1.40;1.30;;;23.60;77.30;;;23.44;40.58;97412.72;4999645;28;20050;-40
2022/05/15 10:45:35;;;;;;;4.80;1.60;;;23.60;77.20;;;23.49;41.69;97408.75;4997833;28;20045;-40
2022/05/15 10:48:42;;;;;;;4.30;1.65;;;23.60;78.30;;;23.49;40.13;97411.44;4994757;28;20790;-41
2022/05/15 10:51:32;;;;;;;2.47;1.38;;;23.60;76.70;;;23.44;41.53;97401.94;4997347;28;20203;-40